Time;durP1;ratioP1;P1;durP2;ratioP2;P2;SDS_P1;SDS_P2;PMS_P1;PMS_P2;Temp;Humidity;BMP_temperature;BMP_pressure;BME280_temperature;BME280_humidity;BME280_pressure;Samples;Min_cycle;Max_cycle;Signal;HPM_P1;HPM_P2
2021/05/28 00:00:56;;;;;;;4.30;3.07;;;;;;;;;;4936640;28;20238;-80
2021/05/28 00:03:25;;;;;;;5.57;3.10;;;;;;;;;;4955656;28;20255;-82
2021/05/28 00:05:53;;;;;;;3.77;2.80;;;;;;;;;;4930359;29;20207;-81
2021/05/28 00:08:22;;;;;;;2.80;2.60;;;;;;;;;;4927839;28;20222;-79
2021/05/28 00:10:50;;;;;;;3.00;2.67;;;;;;;;;;4943167;28;20242;-83
2021/05/28 00:13:19;;;;;;;3.00;2.70;;;;;;;;;;4948544;28;20212;-78
2021/05/28 00:15:47;;;;;;;2.80;2.57;;;;;;;;;;4944364;28;20203;-78
2021/05/28 00:18:15;;;;;;;5.07;2.97;;;;;;;;;;4935893;28;20231;-82
2021/05/28 00:20:43;;;;;;;3.07;2.73;;;;;;;;;;4928462;29;20227;-80
2021/05/28 00:23:11;;;;;;;5.30;3.40;;;;;;;;;;4928342;28;20214;-82
2021/05/28 00:25:40;;;;;;;3.57;2.90;;;;;;;;;;4937604;28;20214;-83
2021/05/28 00:28:08;;;;;;;3.60;2.70;;;;;;;;;;4928815;29;20207;-79
2021/05/28 00:30:36;;;;;;;3.17;2.80;;;;;;;;;;4959489;28;20232;-83
2021/05/28 00:33:05;;;;;;;3.63;2.90;;;;;;;;;;4942432;29;20227;-83
2021/05/28 00:35:33;;;;;;;5.37;2.60;;;;;;;;;;4927628;28;20206;-82
2021/05/28 00:38:01;;;;;;;3.00;2.57;;;;;;;;;;4933344;29;20790;-82
2021/05/28 00:40:29;;;;;;;5.47;2.97;;;;;;;;;;4953025;28;20219;-80
2021/05/28 00:42:58;;;;;;;3.23;2.63;;;;;;;;;;4944063;28;20207;-82
2021/05/28 00:45:26;;;;;;;3.87;3.00;;;;;;;;;;4947492;28;21107;-84
2021/05/28 00:47:54;;;;;;;3.20;2.87;;;;;;;;;;4937360;28;20207;-83
2021/05/28 00:50:23;;;;;;;5.90;3.43;;;;;;;;;;4944004;28;20243;-80
2021/05/28 00:52:53;;;;;;;5.77;2.80;;;;;;;;;;4921501;28;20664;-82
2021/05/28 00:55:21;;;;;;;3.30;3.00;;;;;;;;;;4937399;28;20222;-82
2021/05/28 00:57:49;;;;;;;4.27;3.20;;;;;;;;;;4946527;28;20235;-80
2021/05/28 01:00:19;;;;;;;6.47;3.40;;;;;;;;;;4943289;28;20235;-81
2021/05/28 01:02:47;;;;;;;3.53;2.97;;;;;;;;;;4934798;29;20227;-80
2021/05/28 01:05:15;;;;;;;3.87;3.03;;;;;;;;;;4929234;29;20200;-81
2021/05/28 01:07:43;;;;;;;3.57;2.87;;;;;;;;;;4957512;28;20198;-82
2021/05/28 01:10:12;;;;;;;3.53;3.20;;;;;;;;;;4937823;28;20231;-79
2021/05/28 01:12:41;;;;;;;3.53;3.10;;;;;;;;;;4940110;28;20666;-83
2021/05/28 01:15:10;;;;;;;3.50;2.97;;;;;;;;;;4942004;28;20215;-82
2021/05/28 01:17:40;;;;;;;3.23;2.83;;;;;;;;;;4955484;28;20526;-79
2021/05/28 01:20:10;;;;;;;2.70;2.47;;;;;;;;;;4938560;28;20223;-80
2021/05/28 01:22:40;;;;;;;3.07;2.67;;;;;;;;;;4926603;29;20214;-79
2021/05/28 01:25:09;;;;;;;3.60;2.50;;;;;;;;;;4929738;29;20494;-79
2021/05/28 01:27:37;;;;;;;2.93;2.63;;;;;;;;;;4938853;28;20214;-84
2021/05/28 01:30:07;;;;;;;4.33;2.33;;;;;;;;;;4936293;28;20219;-83
2021/05/28 01:32:35;;;;;;;4.17;2.57;;;;;;;;;;4939305;28;20210;-83
2021/05/28 01:35:04;;;;;;;3.33;3.03;;;;;;;;;;4925380;29;20218;-82
2021/05/28 01:37:32;;;;;;;3.27;2.50;;;;;;;;;;4947351;28;20227;-79
2021/05/28 01:40:01;;;;;;;5.50;2.87;;;;;;;;;;4922331;28;20608;-79
2021/05/28 01:42:30;;;;;;;3.17;2.53;;;;;;;;;;4945235;28;20214;-79
2021/05/28 01:45:01;;;;;;;3.03;2.73;;;;;;;;;;4929033;29;21500;-82
2021/05/28 01:47:30;;;;;;;3.20;2.90;;;;;;;;;;4936018;28;20215;-81
2021/05/28 01:49:58;;;;;;;3.43;2.50;;;;;;;;;;4927728;28;20242;-80
2021/05/28 01:52:27;;;;;;;4.10;2.70;;;;;;;;;;4937240;28;20211;-83
2021/05/28 01:54:55;;;;;;;2.63;2.43;;;;;;;;;;4921693;28;20216;-80
2021/05/28 01:57:24;;;;;;;4.03;3.03;;;;;;;;;;4937182;28;20228;-80
2021/05/28 01:59:52;;;;;;;3.53;2.87;;;;;;;;;;4926294;28;20274;-84
2021/05/28 02:02:21;;;;;;;3.00;2.63;;;;;;;;;;4949082;28;20223;-83
2021/05/28 02:04:49;;;;;;;3.33;3.03;;;;;;;;;;4953332;28;20200;-79
2021/05/28 02:07:17;;;;;;;5.17;3.47;;;;;;;;;;4924729;28;20584;-79
2021/05/28 02:09:46;;;;;;;5.13;3.30;;;;;;;;;;4919046;29;20228;-79
2021/05/28 02:12:14;;;;;;;5.27;3.00;;;;;;;;;;4936258;28;20329;-78
2021/05/28 02:14:43;;;;;;;3.87;3.00;;;;;;;;;;4936352;28;20731;-80
2021/05/28 02:17:11;;;;;;;3.73;2.83;;;;;;;;;;4931744;29;20211;-83
2021/05/28 02:19:39;;;;;;;3.20;2.83;;;;;;;;;;4947198;29;20243;-82
2021/05/28 02:22:10;;;;;;;4.93;2.90;;;;;;;;;;4927855;28;20214;-83
2021/05/28 02:24:38;;;;;;;3.43;2.70;;;;;;;;;;4952296;28;20214;-79
2021/05/28 02:27:07;;;;;;;2.67;2.47;;;;;;;;;;4927063;29;20204;-79
2021/05/28 02:29:36;;;;;;;4.10;2.37;;;;;;;;;;4955805;28;20227;-81
2021/05/28 02:32:05;;;;;;;3.90;2.60;;;;;;;;;;4944033;28;20208;-82
2021/05/28 02:34:33;;;;;;;3.30;2.90;;;;;;;;;;4931036;28;20218;-84
2021/05/28 02:37:02;;;;;;;2.80;2.60;;;;;;;;;;4942081;28;20211;-79
2021/05/28 02:39:30;;;;;;;3.43;2.70;;;;;;;;;;4922172;28;20237;-79
2021/05/28 02:41:58;;;;;;;2.87;2.67;;;;;;;;;;4923151;29;20210;-79
2021/05/28 02:44:26;;;;;;;2.80;2.50;;;;;;;;;;4941198;28;20210;-83
2021/05/28 02:46:54;;;;;;;3.30;2.60;;;;;;;;;;4931221;29;20214;-78
2021/05/28 02:49:24;;;;;;;4.60;2.67;;;;;;;;;;4926685;29;20302;-79
2021/05/28 02:51:52;;;;;;;4.57;2.67;;;;;;;;;;4926859;29;20669;-83
2021/05/28 02:54:20;;;;;;;5.27;2.70;;;;;;;;;;4942164;28;20207;-83
2021/05/28 02:56:48;;;;;;;4.60;2.40;;;;;;;;;;4938733;28;20219;-83
2021/05/28 02:59:16;;;;;;;3.23;2.50;;;;;;;;;;4942725;28;20227;-84
2021/05/28 03:01:44;;;;;;;2.53;2.33;;;;;;;;;;4930346;29;20397;-78
2021/05/28 03:04:12;;;;;;;3.40;2.90;;;;;;;;;;4925326;29;20620;-78
2021/05/28 03:06:41;;;;;;;3.97;2.60;;;;;;;;;;4945506;28;20587;-83
2021/05/28 03:09:09;;;;;;;5.80;3.43;;;;;;;;;;4941640;28;20223;-81
2021/05/28 03:11:38;;;;;;;3.93;3.20;;;;;;;;;;4940307;28;20210;-80
2021/05/28 03:14:06;;;;;;;3.03;2.63;;;;;;;;;;4942460;28;20339;-82
2021/05/28 03:16:34;;;;;;;2.70;2.50;;;;;;;;;;4940838;28;20218;-79
2021/05/28 03:19:06;;;;;;;2.97;2.53;;;;;;;;;;4942267;28;20241;-81
2021/05/28 03:22:30;;;;;;;3.03;2.50;;;;;;;;;;4949381;28;20210;-83
2021/05/28 03:24:27;;;;;;;4.20;3.37;;;;;;;;;;4952693;28;20225;-87
2021/05/28 03:26:55;;;;;;;2.70;2.50;;;;;;;;;;4951440;29;20226;-85
2021/05/28 03:29:23;;;;;;;2.97;2.70;;;;;;;;;;4940863;29;20230;-80
2021/05/28 03:31:51;;;;;;;2.83;2.60;;;;;;;;;;4924576;29;20296;-81
2021/05/28 03:34:19;;;;;;;3.33;2.87;;;;;;;;;;4947982;28;20692;-83
2021/05/28 03:36:48;;;;;;;4.40;3.03;;;;;;;;;;4943589;28;20215;-85
2021/05/28 03:39:16;;;;;;;3.80;3.40;;;;;;;;;;4940339;28;20242;-81
2021/05/28 03:41:45;;;;;;;5.27;3.23;;;;;;;;;;4939584;28;20230;-79
2021/05/28 03:44:13;;;;;;;3.53;3.23;;;;;;;;;;4926990;29;20211;-78
2021/05/28 03:46:41;;;;;;;4.47;3.87;;;;;;;;;;4938780;28;20214;-79
2021/05/28 03:49:09;;;;;;;3.97;3.07;;;;;;;;;;4945927;28;20230;-80
2021/05/28 03:51:37;;;;;;;4.40;3.87;;;;;;;;;;4931949;29;20582;-78
2021/05/28 03:54:05;;;;;;;4.00;3.60;;;;;;;;;;4947803;28;20228;-80
2021/05/28 03:56:33;;;;;;;8.80;3.83;;;;;;;;;;4928007;29;20206;-80
2021/05/28 03:59:03;;;;;;;4.33;3.93;;;;;;;;;;4975767;23;20228;-80
2021/05/28 04:01:31;;;;;;;5.43;3.97;;;;;;;;;;4910305;29;20218;-80
2021/05/28 04:03:59;;;;;;;4.83;3.20;;;;;;;;;;4933450;29;20365;-80
2021/05/28 04:06:27;;;;;;;4.57;3.67;;;;;;;;;;4932582;29;20684;-80
2021/05/28 04:08:55;;;;;;;6.63;3.73;;;;;;;;;;4932050;29;20208;-80
2021/05/28 04:11:24;;;;;;;5.37;3.60;;;;;;;;;;4945413;28;20219;-80
2021/05/28 04:13:52;;;;;;;4.67;4.10;;;;;;;;;;4932144;29;20211;-80
2021/05/28 04:16:21;;;;;;;4.60;4.00;;;;;;;;;;4931813;29;20223;-80
2021/05/28 04:18:49;;;;;;;6.37;4.00;;;;;;;;;;4916389;29;20231;-80
2021/05/28 04:21:17;;;;;;;6.03;4.40;;;;;;;;;;4926685;29;20218;-80
2021/05/28 04:23:45;;;;;;;3.90;3.60;;;;;;;;;;4917961;29;20211;-80
2021/05/28 04:26:13;;;;;;;4.00;3.70;;;;;;;;;;4923047;29;20665;-80
2021/05/28 04:28:41;;;;;;;4.70;4.03;;;;;;;;;;4921154;29;20214;-80
2021/05/28 04:31:10;;;;;;;4.63;3.90;;;;;;;;;;4913423;29;20218;-80
2021/05/28 04:33:39;;;;;;;6.43;3.90;;;;;;;;;;4934587;29;20210;-80
2021/05/28 04:36:07;;;;;;;3.60;3.30;;;;;;;;;;4926332;29;20218;-80
2021/05/28 04:38:36;;;;;;;3.87;3.57;;;;;;;;;;4931723;29;20660;-80
2021/05/28 04:41:05;;;;;;;5.53;3.83;;;;;;;;;;4936466;29;20231;-80
2021/05/28 04:43:33;;;;;;;5.20;3.80;;;;;;;;;;4938843;29;20211;-80
2021/05/28 04:46:01;;;;;;;8.67;3.63;;;;;;;;;;4930594;29;20215;-79
2021/05/28 04:48:30;;;;;;;4.27;3.70;;;;;;;;;;4929745;29;20208;-79
2021/05/28 04:50:59;;;;;;;5.03;3.77;;;;;;;;;;4933692;29;20234;-80
2021/05/28 04:53:27;;;;;;;4.73;3.97;;;;;;;;;;4949878;28;20210;-81
2021/05/28 04:55:56;;;;;;;6.73;3.83;;;;;;;;;;4940841;29;20206;-81
2021/05/28 04:58:24;;;;;;;4.67;3.40;;;;;;;;;;4919860;29;20557;-80
2021/05/28 05:00:53;;;;;;;4.50;4.00;;;;;;;;;;4922850;29;20231;-80
2021/05/28 05:03:21;;;;;;;5.03;3.90;;;;;;;;;;4938875;29;20200;-80
2021/05/28 05:05:49;;;;;;;4.80;4.17;;;;;;;;;;4949994;28;20233;-80
2021/05/28 05:08:18;;;;;;;5.03;4.57;;;;;;;;;;4928634;29;20216;-80
2021/05/28 05:10:47;;;;;;;4.73;3.97;;;;;;;;;;4934686;29;20220;-81
2021/05/28 05:13:16;;;;;;;8.93;3.93;;;;;;;;;;4939407;29;20214;-80
2021/05/28 05:15:44;;;;;;;6.97;4.47;;;;;;;;;;4937478;29;20218;-80
2021/05/28 05:18:12;;;;;;;5.17;4.67;;;;;;;;;;4928434;28;20660;-80
2021/05/28 05:20:40;;;;;;;7.93;4.60;;;;;;;;;;4959205;28;20223;-80
2021/05/28 05:23:09;;;;;;;6.27;4.90;;;;;;;;;;4959803;28;20198;-82
2021/05/28 05:25:38;;;;;;;4.90;4.40;;;;;;;;;;4957805;28;20217;-81
2021/05/28 05:28:06;;;;;;;6.60;4.63;;;;;;;;;;4956284;28;20195;-80
2021/05/28 05:30:34;;;;;;;6.97;5.57;;;;;;;;;;4919737;29;20230;-80
2021/05/28 05:33:02;;;;;;;7.47;4.33;;;;;;;;;;4933689;29;20214;-80
2021/05/28 05:35:30;;;;;;;6.23;5.17;;;;;;;;;;4946411;28;20204;-80
2021/05/28 05:37:58;;;;;;;4.87;4.10;;;;;;;;;;4935292;29;20204;-80
2021/05/28 05:40:27;;;;;;;4.87;4.27;;;;;;;;;;4953686;28;20657;-79
2021/05/28 05:42:56;;;;;;;4.50;3.80;;;;;;;;;;4912599;29;20212;-79
2021/05/28 05:45:24;;;;;;;4.40;4.00;;;;;;;;;;4930382;29;20222;-79
2021/05/28 05:47:53;;;;;;;3.43;3.13;;;;;;;;;;4926747;29;20391;-79
2021/05/28 05:50:21;;;;;;;8.50;3.87;;;;;;;;;;4929775;29;20515;-79
2021/05/28 05:52:52;;;;;;;4.63;3.57;;;;;;;;;;4915655;29;20451;-79
2021/05/28 05:55:22;;;;;;;4.07;3.43;;;;;;;;;;4946654;28;20207;-79
2021/05/28 05:57:50;;;;;;;5.40;3.87;;;;;;;;;;4941716;28;20207;-79
2021/05/28 06:00:21;;;;;;;5.60;4.50;;;;;;;;;;4930228;29;20232;-79
2021/05/28 06:02:49;;;;;;;5.10;3.27;;;;;;;;;;4930860;29;20407;-81
2021/05/28 06:05:18;;;;;;;4.40;3.57;;;;;;;;;;4937081;29;20214;-79
2021/05/28 06:07:46;;;;;;;21.00;19.40;;;;;;;;;;4934399;28;20200;-79
2021/05/28 06:10:15;;;;;;;10.97;10.07;;;;;;;;;;4927237;29;20243;-79
2021/05/28 06:12:43;;;;;;;3.10;2.90;;;;;;;;;;4923465;29;20208;-80
2021/05/28 06:15:12;;;;;;;7.43;3.90;;;;;;;;;;4945949;29;20211;-80
2021/05/28 06:17:41;;;;;;;6.03;4.37;;;;;;;;;;4941963;29;20211;-81
2021/05/28 06:20:11;;;;;;;18.60;16.73;;;;;;;;;;4920071;29;20234;-79
2021/05/28 06:22:39;;;;;;;6.83;4.53;;;;;;;;;;4928604;29;20200;-80
2021/05/28 06:25:10;;;;;;;15.37;14.03;;;;;;;;;;4944274;29;20210;-79
2021/05/28 06:27:38;;;;;;;33.20;29.90;;;;;;;;;;4943836;29;20212;-79
2021/05/28 06:30:08;;;;;;;22.10;20.33;;;;;;;;;;4952250;28;20234;-79
2021/05/28 06:32:36;;;;;;;10.87;10.00;;;;;;;;;;4937317;29;20573;-79
2021/05/28 06:35:06;;;;;;;14.63;13.40;;;;;;;;;;4932515;29;20208;-79
2021/05/28 06:37:35;;;;;;;8.17;7.37;;;;;;;;;;4934325;29;20211;-79
2021/05/28 06:40:04;;;;;;;61.33;55.97;;;;;;;;;;4915372;29;20595;-79
2021/05/28 06:42:33;;;;;;;12.43;11.47;;;;;;;;;;4939472;29;20230;-79
2021/05/28 06:45:01;;;;;;;7.33;6.47;;;;;;;;;;4937385;29;20222;-80
2021/05/28 06:47:30;;;;;;;7.50;6.70;;;;;;;;;;4939381;29;20215;-79
2021/05/28 06:49:58;;;;;;;64.67;59.27;;;;;;;;;;4927957;29;20242;-80
2021/05/28 06:52:27;;;;;;;9.50;8.70;;;;;;;;;;4924459;29;20212;-80
2021/05/28 06:54:56;;;;;;;6.33;5.73;;;;;;;;;;4927179;29;20234;-80
2021/05/28 06:57:25;;;;;;;5.30;4.73;;;;;;;;;;4937487;29;20224;-81
2021/05/28 06:59:53;;;;;;;6.27;5.67;;;;;;;;;;4928228;29;20618;-79
2021/05/28 07:02:21;;;;;;;6.77;5.20;;;;;;;;;;4916040;29;20203;-79
2021/05/28 07:04:49;;;;;;;8.27;5.47;;;;;;;;;;4915831;29;20208;-79
2021/05/28 07:08:22;;;;;;;4.23;3.83;;;;;;;;;;4937127;29;20226;-79
2021/05/28 07:11:10;;;;;;;6.37;5.03;;;;;;;;;;4913418;29;20231;-79
2021/05/28 07:13:39;;;;;;;6.07;4.53;;;;;;;;;;4918935;29;20537;-78
2021/05/28 07:16:19;;;;;;;4.50;4.10;;;;;;;;;;4937897;29;20204;-79
2021/05/28 07:18:48;;;;;;;5.53;4.93;;;;;;;;;;4916082;29;20212;-81
2021/05/28 07:21:17;;;;;;;5.40;4.90;;;;;;;;;;4937148;29;20310;-80
2021/05/28 07:23:46;;;;;;;9.57;8.67;;;;;;;;;;4920875;29;20204;-79
2021/05/28 07:26:14;;;;;;;8.57;6.70;;;;;;;;;;4934996;29;20214;-79
2021/05/28 07:28:42;;;;;;;6.87;5.60;;;;;;;;;;4918354;29;20199;-79
2021/05/28 07:31:11;;;;;;;4.67;4.27;;;;;;;;;;4914381;29;20282;-78
2021/05/28 07:33:39;;;;;;;3.53;3.10;;;;;;;;;;4941242;28;20201;-79
2021/05/28 07:36:08;;;;;;;9.57;6.63;;;;;;;;;;4925075;29;20219;-78
2021/05/28 07:38:36;;;;;;;4.83;4.33;;;;;;;;;;4915588;29;20211;-79
2021/05/28 07:41:06;;;;;;;3.53;3.23;;;;;;;;;;4911644;29;20243;-80
2021/05/28 07:43:34;;;;;;;2.83;2.53;;;;;;;;;;4930542;29;20210;-79
2021/05/28 07:46:03;;;;;;;3.10;2.80;;;;;;;;;;4928717;29;20207;-79
2021/05/28 07:48:31;;;;;;;4.93;2.67;;;;;;;;;;4945234;28;20207;-79
2021/05/28 07:51:01;;;;;;;4.30;2.97;;;;;;;;;;4920007;29;20220;-79
2021/05/28 07:53:55;;;;;;;3.83;2.53;;;;;;;;;;4927206;29;20203;-80
2021/05/28 07:56:24;;;;;;;4.17;2.70;;;;;;;;;;4940505;29;20225;-79
2021/05/28 07:58:52;;;;;;;11.70;3.63;;;;;;;;;;4916307;29;20215;-79
2021/05/28 08:01:20;;;;;;;4.73;2.67;;;;;;;;;;4937003;29;20243;-80
2021/05/28 08:03:48;;;;;;;3.13;2.70;;;;;;;;;;4938402;29;20597;-80
2021/05/28 08:06:16;;;;;;;4.87;2.97;;;;;;;;;;4920514;29;20220;-80
2021/05/28 08:08:44;;;;;;;3.07;2.43;;;;;;;;;;4931991;29;20214;-80
2021/05/28 08:11:13;;;;;;;4.57;3.20;;;;;;;;;;4933184;29;20191;-80
2021/05/28 08:13:42;;;;;;;4.13;2.80;;;;;;;;;;4950826;28;20222;-81
2021/05/28 08:16:10;;;;;;;3.30;2.57;;;;;;;;;;4913735;29;20266;-79
2021/05/28 08:18:39;;;;;;;3.23;2.80;;;;;;;;;;4914245;29;20203;-80
2021/05/28 08:21:08;;;;;;;2.83;2.63;;;;;;;;;;4931168;29;20244;-79
2021/05/28 08:23:38;;;;;;;2.60;2.40;;;;;;;;;;4914713;29;20695;-79
2021/05/28 08:26:08;;;;;;;6.77;2.83;;;;;;;;;;4914361;29;20200;-79
2021/05/28 08:28:36;;;;;;;3.00;2.67;;;;;;;;;;4947498;28;20213;-80
2021/05/28 08:31:06;;;;;;;4.10;2.70;;;;;;;;;;4919449;29;20708;-79
2021/05/28 08:33:35;;;;;;;5.63;2.70;;;;;;;;;;4933884;29;20207;-80
2021/05/28 08:36:05;;;;;;;4.60;2.73;;;;;;;;;;4934300;29;20207;-80
2021/05/28 08:38:33;;;;;;;4.53;3.10;;;;;;;;;;4919111;29;20592;-80
2021/05/28 08:41:01;;;;;;;2.97;2.50;;;;;;;;;;4910029;29;20238;-80
2021/05/28 08:43:30;;;;;;;3.57;2.63;;;;;;;;;;4923985;29;20683;-81
2021/05/28 08:46:01;;;;;;;3.00;2.43;;;;;;;;;;4951148;28;20613;-80
2021/05/28 08:48:30;;;;;;;3.03;2.73;;;;;;;;;;4939937;29;20204;-81
2021/05/28 08:50:58;;;;;;;3.83;2.37;;;;;;;;;;4924106;29;20231;-80
2021/05/28 08:53:28;;;;;;;3.07;2.40;;;;;;;;;;4925780;29;20215;-80
2021/05/28 08:55:56;;;;;;;3.23;2.50;;;;;;;;;;4937993;29;20208;-80
2021/05/28 08:58:25;;;;;;;4.23;2.43;;;;;;;;;;4941723;29;20736;-80
2021/05/28 09:00:54;;;;;;;3.67;2.50;;;;;;;;;;4930039;29;20706;-80
2021/05/28 09:03:26;;;;;;;2.87;2.13;;;;;;;;;;4931756;29;20208;-79
2021/05/28 09:05:57;;;;;;;3.10;2.10;;;;;;;;;;4923570;29;20724;-80
2021/05/28 09:08:27;;;;;;;3.13;2.03;;;;;;;;;;4939268;29;20589;-81
2021/05/28 09:11:06;;;;;;;2.37;2.20;;;;;;;;;;4932572;29;20236;-82
2021/05/28 09:13:34;;;;;;;2.30;2.10;;;;;;;;;;4924296;29;20211;-80
2021/05/28 09:16:10;;;;;;;4.43;2.27;;;;;;;;;;4935582;29;20200;-81
2021/05/28 09:18:45;;;;;;;3.00;1.70;;;;;;;;;;4932532;29;20693;-80
2021/05/28 09:21:19;;;;;;;2.50;1.77;;;;;;;;;;4931433;29;20228;-81
2021/05/28 09:23:48;;;;;;;2.20;2.00;;;;;;;;;;4937456;29;20211;-81
2021/05/28 09:26:16;;;;;;;3.07;2.20;;;;;;;;;;4938996;29;20200;-80
2021/05/28 09:28:46;;;;;;;2.00;1.77;;;;;;;;;;4956159;28;20214;-80
2021/05/28 09:31:15;;;;;;;3.60;1.47;;;;;;;;;;4921879;29;20208;-81
2021/05/28 09:33:45;;;;;;;4.20;2.00;;;;;;;;;;4936839;29;20208;-81
2021/05/28 09:36:17;;;;;;;2.00;1.60;;;;;;;;;;4918030;29;20484;-80
2021/05/28 09:38:56;;;;;;;3.40;1.40;;;;;;;;;;4943058;29;20195;-81
2021/05/28 09:41:35;;;;;;;1.40;1.30;;;;;;;;;;4923412;29;20680;-81
2021/05/28 09:44:14;;;;;;;4.03;2.07;;;;;;;;;;4932784;29;20203;-81
2021/05/28 09:47:07;;;;;;;2.00;1.80;;;;;;;;;;4940945;28;20211;-81
2021/05/28 09:49:37;;;;;;;2.63;1.60;;;;;;;;;;4930297;29;20231;-80
2021/05/28 09:52:09;;;;;;;2.30;1.80;;;;;;;;;;4927321;29;20211;-81
2021/05/28 09:54:37;;;;;;;2.00;1.80;;;;;;;;;;4933162;29;20230;-81
2021/05/28 09:57:06;;;;;;;3.33;1.90;;;;;;;;;;4929169;28;20204;-81
2021/05/28 09:59:45;;;;;;;1.80;1.60;;;;;;;;;;4930671;23;20581;-80
2021/05/28 10:02:31;;;;;;;1.97;1.60;;;;;;;;;;4942083;28;20234;-78
2021/05/28 10:04:59;;;;;;;5.40;1.87;;;;;;;;;;4928641;29;20719;-80
2021/05/28 10:07:30;;;;;;;3.03;1.47;;;;;;;;;;4934946;28;20207;-79
2021/05/28 10:09:58;;;;;;;1.73;1.60;;;;;;;;;;4950872;28;20237;-78
2021/05/28 10:12:26;;;;;;;1.92;1.75;;;;;;;;;;4936376;29;20222;-78
2021/05/28 10:14:55;;;;;;;1.50;1.40;;;;;;;;;;4951305;28;20218;-77
2021/05/28 10:17:23;;;;;;;1.40;1.30;;;;;;;;;;4952580;28;20214;-80
2021/05/28 10:19:51;;;;;;;1.48;1.38;;;;;;;;;;4960953;28;20595;-78
2021/05/28 10:22:21;;;;;;;2.22;1.40;;;;;;;;;;4950290;28;20688;-80
2021/05/28 10:24:51;;;;;;;1.90;1.25;;;;;;;;;;4952920;28;20211;-77
2021/05/28 10:27:23;;;;;;;3.35;1.75;;;;;;;;;;4948635;28;20203;-78
2021/05/28 10:29:53;;;;;;;1.50;1.40;;;;;;;;;;4964132;28;20234;-77
2021/05/28 10:32:22;;;;;;;1.75;1.40;;;;;;;;;;4960428;28;20664;-78
2021/05/28 10:35:05;;;;;;;1.50;1.17;;;;;;;;;;4951264;28;20226;-78
2021/05/28 10:37:33;;;;;;;3.30;1.33;;;;;;;;;;4952025;28;20207;-79
2021/05/28 10:40:11;;;;;;;1.33;1.23;;;;;;;;;;4927628;29;20809;-79
2021/05/28 10:43:01;;;;;;;1.40;1.30;;;;;;;;;;4951229;28;20219;-77
2021/05/28 10:46:00;;;;;;;2.28;1.48;;;;;;;;;;4935151;28;20668;-77
2021/05/28 10:49:07;;;;;;;2.35;1.65;;;;;;;;;;4946104;28;20207;-78
2021/05/28 10:52:01;;;;;;;2.03;1.45;;;;;;;;;;4930448;29;20214;-76
2021/05/28 10:54:32;;;;;;;2.25;1.40;;;;;;;;;;4960271;28;20211;-79
2021/05/28 10:57:35;;;;;;;1.40;1.30;;;;;;;;;;4936845;29;20226;-77
2021/05/28 11:00:10;;;;;;;1.85;1.20;;;;;;;;;;4948837;28;20723;-77
2021/05/28 11:02:56;;;;;;;1.50;1.40;;;;;;;;;;4946267;28;20222;-78
2021/05/28 11:05:44;;;;;;;1.50;1.40;;;;;;;;;;4962070;28;20686;-78
2021/05/28 11:08:51;;;;;;;2.45;1.60;;;;;;;;;;4940685;28;20211;-78
2021/05/28 11:11:57;;;;;;;4.30;1.40;;;;;;;;;;4944394;28;20572;-78
2021/05/28 11:14:27;;;;;;;1.60;1.35;;;;;;;;;;4926058;29;20690;-78
2021/05/28 11:17:18;;;;;;;2.50;1.20;;;;;;;;;;4945908;28;20581;-77
2021/05/28 11:19:49;;;;;;;2.38;1.60;;;;;;;;;;4943775;28;20623;-78
2021/05/28 11:22:39;;;;;;;3.50;1.63;;;;;;;;;;4925784;29;20203;-78
2021/05/28 11:25:16;;;;;;;1.52;1.42;;;;;;;;;;4929675;29;20203;-78
2021/05/28 11:27:56;;;;;;;3.63;1.63;;;;;;;;;;4946026;28;20223;-78
2021/05/28 11:30:47;;;;;;;1.75;1.65;;;;;;;;;;4964248;28;20720;-78
2021/05/28 11:33:41;;;;;;;1.92;1.73;;;;;;;;;;4953460;28;20230;-77
2021/05/28 11:36:40;;;;;;;1.60;1.50;;;;;;;;;;4949515;28;20214;-77
2021/05/28 11:39:12;;;;;;;1.42;1.33;;;;;;;;;;4952283;28;20242;-78
2021/05/28 11:41:44;;;;;;;1.35;1.30;;;;;;;;;;4952379;28;20883;-78
2021/05/28 11:44:14;;;;;;;1.63;1.52;;;;;;;;;;4948541;28;20235;-77
2021/05/28 11:46:44;;;;;;;1.60;1.50;;;;;;;;;;4951594;28;20660;-78
2021/05/28 11:49:14;;;;;;;1.50;1.40;;;;;;;;;;4954412;28;20590;-77
2021/05/28 11:51:42;;;;;;;1.83;1.63;;;;;;;;;;4950835;28;20203;-78
2021/05/28 11:54:21;;;;;;;1.50;1.40;;;;;;;;;;4950056;28;20195;-77
2021/05/28 11:56:57;;;;;;;2.10;1.67;;;;;;;;;;4963867;28;20225;-77
2021/05/28 11:59:52;;;;;;;2.45;1.40;;;;;;;;;;4952479;28;20237;-77
2021/05/28 12:02:38;;;;;;;1.65;1.50;;;;;;;;;;4958917;28;20207;-78
2021/05/28 12:05:16;;;;;;;1.80;1.70;;;;;;;;;;4945013;28;20191;-78
2021/05/28 12:07:44;;;;;;;1.50;1.40;;;;;;;;;;4960128;28;20222;-78
2021/05/28 12:10:13;;;;;;;2.42;1.58;;;;;;;;;;4936074;28;20442;-78
2021/05/28 12:13:01;;;;;;;2.30;1.40;;;;;;;;;;4949705;28;20222;-78
2021/05/28 12:15:32;;;;;;;1.48;1.38;;;;;;;;;;4948238;28;20568;-78
2021/05/28 12:18:05;;;;;;;1.40;1.30;;;;;;;;;;4949481;28;20195;-78
2021/05/28 12:20:33;;;;;;;2.00;1.30;;;;;;;;;;4949203;28;20226;-78
2021/05/28 12:23:11;;;;;;;1.60;1.50;;;;;;;;;;4934264;29;20227;-78
2021/05/28 12:25:43;;;;;;;2.45;1.48;;;;;;;;;;4950504;28;20206;-78
2021/05/28 12:28:20;;;;;;;2.03;1.55;;;;;;;;;;4951833;28;20203;-79
2021/05/28 12:30:51;;;;;;;1.70;1.60;;;;;;;;;;4950556;28;20230;-78
2021/05/28 12:33:25;;;;;;;1.60;1.50;;;;;;;;;;4953174;28;20338;-78
2021/05/28 12:35:55;;;;;;;1.60;1.50;;;;;;;;;;4950976;28;20665;-78
2021/05/28 12:38:31;;;;;;;2.65;1.50;;;;;;;;;;4952498;28;20584;-78
2021/05/28 12:41:01;;;;;;;1.85;1.50;;;;;;;;;;4950677;28;20225;-78
2021/05/28 12:43:30;;;;;;;1.83;1.70;;;;;;;;;;4930484;28;20225;-78
2021/05/28 12:45:59;;;;;;;1.60;1.50;;;;;;;;;;4951766;28;20578;-78
2021/05/28 12:48:48;;;;;;;1.60;1.50;;;;;;;;;;4959428;28;20210;-78
2021/05/28 12:51:17;;;;;;;1.70;1.60;;;;;;;;;;4966749;28;20578;-78
2021/05/28 12:53:46;;;;;;;1.60;1.50;;;;;;;;;;4976266;28;20202;-79
2021/05/28 12:56:22;;;;;;;1.60;1.50;;;;;;;;;;4931908;28;20606;-79
2021/05/28 12:58:51;;;;;;;2.08;1.50;;;;;;;;;;4946617;28;20198;-79
2021/05/28 13:01:20;;;;;;;1.75;1.42;;;;;;;;;;4946712;29;20203;-78
2021/05/28 13:03:52;;;;;;;1.70;1.60;;;;;;;;;;4967054;28;20218;-79
2021/05/28 13:06:42;;;;;;;1.90;1.77;;;;;;;;;;4951996;28;20203;-79
2021/05/28 13:09:14;;;;;;;1.60;1.50;;;;;;;;;;4931179;28;20255;-79
2021/05/28 13:11:56;;;;;;;2.40;1.90;;;;;;;;;;4946014;28;20590;-79
2021/05/28 13:14:28;;;;;;;2.05;1.80;;;;;;;;;;4942307;28;20683;-79
2021/05/28 13:17:22;;;;;;;1.90;1.80;;;;;;;;;;4946729;28;20230;-79
2021/05/28 13:19:52;;;;;;;1.45;1.35;;;;;;;;;;4967261;28;20222;-79
2021/05/28 13:22:39;;;;;;;1.67;1.58;;;;;;;;;;4948844;28;20208;-79
2021/05/28 13:25:16;;;;;;;1.35;1.33;;;;;;;;;;4956237;28;20230;-79
2021/05/28 13:27:45;;;;;;;1.73;1.60;;;;;;;;;;4937059;29;20704;-79
2021/05/28 13:30:15;;;;;;;1.70;1.60;;;;;;;;;;4956938;28;20234;-79
2021/05/28 13:32:44;;;;;;;1.52;1.42;;;;;;;;;;4955569;28;20203;-79
2021/05/28 13:35:15;;;;;;;1.80;1.70;;;;;;;;;;4961244;28;20207;-79
2021/05/28 13:37:43;;;;;;;1.55;1.45;;;;;;;;;;4960202;28;20211;-79
2021/05/28 13:40:13;;;;;;;1.55;1.45;;;;;;;;;;4948658;28;20241;-80
2021/05/28 13:42:45;;;;;;;1.65;1.55;;;;;;;;;;4969924;28;20211;-79
2021/05/28 13:45:14;;;;;;;1.48;1.38;;;;;;;;;;4963442;28;20718;-79
2021/05/28 13:47:42;;;;;;;1.40;1.30;;;;;;;;;;4960548;28;20211;-79
2021/05/28 13:50:11;;;;;;;3.20;1.60;;;;;;;;;;4956674;28;20235;-79
2021/05/28 13:52:40;;;;;;;1.50;1.40;;;;;;;;;;4957195;28;20261;-79
2021/05/28 13:55:10;;;;;;;1.55;1.45;;;;;;;;;;4967124;28;20211;-79
2021/05/28 13:57:38;;;;;;;1.42;1.33;;;;;;;;;;4966142;28;20214;-79
2021/05/28 14:00:11;;;;;;;1.58;1.33;;;;;;;;;;4968572;28;20239;-79
2021/05/28 14:02:39;;;;;;;2.60;1.60;;;;;;;;;;4966084;28;20206;-79
2021/05/28 14:05:09;;;;;;;3.40;1.30;;;;;;;;;;4967073;28;20597;-79
2021/05/28 14:07:37;;;;;;;1.10;1.10;;;;;;;;;;4966632;28;20214;-79
2021/05/28 14:10:07;;;;;;;1.40;1.30;;;;;;;;;;4952130;29;20234;-79
2021/05/28 14:12:36;;;;;;;1.30;1.30;;;;;;;;;;4937058;29;20203;-79
2021/05/28 14:15:05;;;;;;;1.38;1.27;;;;;;;;;;4935744;29;20199;-79
2021/05/28 14:17:33;;;;;;;1.40;1.30;;;;;;;;;;4955814;28;20690;-79
2021/05/28 14:20:01;;;;;;;1.90;1.30;;;;;;;;;;4954112;28;20219;-79
2021/05/28 14:22:29;;;;;;;1.40;1.30;;;;;;;;;;4956751;28;20211;-79
2021/05/28 14:24:57;;;;;;;1.60;1.50;;;;;;;;;;4955199;28;20226;-80
2021/05/28 14:27:26;;;;;;;1.67;1.58;;;;;;;;;;4954180;28;20214;-79
2021/05/28 14:29:55;;;;;;;1.40;1.30;;;;;;;;;;4929976;29;20227;-80
2021/05/28 14:32:25;;;;;;;2.40;1.40;;;;;;;;;;4949251;28;20217;-80
2021/05/28 14:34:54;;;;;;;1.40;1.30;;;;;;;;;;4935523;29;20210;-80
2021/05/28 14:37:22;;;;;;;1.60;1.50;;;;;;;;;;4969266;28;20207;-80
2021/05/28 14:39:50;;;;;;;3.42;1.50;;;;;;;;;;4949904;28;20235;-80
2021/05/28 14:42:32;;;;;;;1.10;1.10;;;;;;;;;;4969510;28;20211;-80
2021/05/28 14:45:25;;;;;;;1.60;1.50;;;;;;;;;;4942178;28;20564;-79
2021/05/28 14:47:53;;;;;;;1.70;1.30;;;;;;;;;;4940797;28;20226;-79
2021/05/28 14:50:26;;;;;;;1.40;1.30;;;;;;;;;;4946994;28;20308;-79
2021/05/28 14:52:55;;;;;;;2.25;1.55;;;;;;;;;;4950156;28;20226;-79
2021/05/28 14:57:20;;;;;;;1.55;1.45;;;;;;;;;;5045263;27;83153;-81
2021/05/28 14:59:50;;;;;;;1.48;1.30;;;;;;;;;;5037719;28;20218;-80
2021/05/28 15:02:18;;;;;;;1.50;1.40;;;;;;;;;;5009084;28;20236;-81
2021/05/28 15:04:46;;;;;;;1.60;1.50;;;;;;;;;;5035560;28;20216;-81
2021/05/28 15:07:14;;;;;;;1.58;1.30;;;;;;;;;;5012238;28;20716;-80
2021/05/28 15:09:42;;;;;;;1.40;1.30;;;;;;;;;;5020129;28;20227;-80